Time;durP1;ratioP1;P1;durP2;ratioP2;P2;SDS_P1;SDS_P2;PMS_P1;PMS_P2;Temp;Humidity;BMP_temperature;BMP_pressure;BME280_temperature;BME280_humidity;BME280_pressure;Samples;Min_cycle;Max_cycle;Signal;HPM_P1;HPM_P2
2023/03/02 00:01:48;;;;;;;10.05;7.15;;;;;;;3.13;100.00;98451.38;5097316;28;20044;-93
2023/03/02 00:04:19;;;;;;;8.30;5.63;;;;;;;3.28;100.00;98434.72;5099031;28;20043;-92
2023/03/02 00:06:47;;;;;;;8.40;5.30;;;;;;;3.34;100.00;98412.75;5099689;28;20048;-92
2023/03/02 00:09:13;;;;;;;7.93;5.15;;;;;;;3.45;100.00;98397.84;5098630;28;20032;-94
2023/03/02 00:11:39;;;;;;;8.80;5.07;;;;;;;3.52;100.00;98422.34;5099445;28;20127;-92
2023/03/02 00:14:07;;;;;;;9.25;5.25;;;;;;;3.55;100.00;98404.78;5099007;28;20051;-92
2023/03/02 00:16:33;;;;;;;7.15;4.60;;;;;;;3.72;100.00;98433.63;5099160;28;20413;-92
2023/03/02 00:18:59;;;;;;;9.63;4.50;;;;;;;3.46;100.00;98395.19;5099052;28;20425;-93
2023/03/02 00:21:25;;;;;;;8.15;5.10;;;;;;;3.60;100.00;98404.75;5099414;28;20044;-94
2023/03/02 00:23:51;;;;;;;6.32;4.40;;;;;;;3.69;100.00;98399.47;5099365;28;20040;-93
2023/03/02 00:26:18;;;;;;;7.20;4.93;;;;;;;3.88;100.00;98422.16;5099898;28;20044;-93
2023/03/02 00:28:44;;;;;;;7.57;5.20;;;;;;;3.79;100.00;98389.75;5098500;28;20063;-93
2023/03/02 00:31:11;;;;;;;8.05;5.03;;;;;;;3.94;100.00;98415.09;5097870;28;20048;-91
2023/03/02 00:33:37;;;;;;;7.72;5.05;;;;;;;3.76;100.00;98381.91;5098113;28;20052;-92
2023/03/02 00:36:03;;;;;;;7.15;4.32;;;;;;;3.77;100.00;98386.28;5098943;28;20054;-91
2023/03/02 00:38:29;;;;;;;6.53;4.63;;;;;;;3.81;100.00;98388.88;5098269;28;20052;-92
2023/03/02 00:40:55;;;;;;;6.43;4.30;;;;;;;3.79;100.00;98385.38;5096356;28;20058;-93
2023/03/02 00:43:26;;;;;;;6.93;4.95;;;;;;;3.91;100.00;98393.19;5098788;28;20127;-92
2023/03/02 00:45:52;;;;;;;8.13;4.72;;;;;;;3.87;100.00;98382.72;5097869;28;20036;-93
2023/03/02 00:48:19;;;;;;;8.02;4.70;;;;;;;3.87;100.00;98385.34;5098831;28;20066;-93
2023/03/02 00:50:45;;;;;;;6.38;4.30;;;;;;;3.98;100.00;98401.91;5096829;28;20036;-91
2023/03/02 00:53:11;;;;;;;6.75;4.05;;;;;;;3.86;100.00;98404.63;5100186;28;20035;-92
2023/03/02 00:55:37;;;;;;;7.20;4.32;;;;;;;3.91;100.00;98414.25;5099174;28;20044;-92
2023/03/02 00:58:04;;;;;;;7.90;4.90;;;;;;;3.94;100.00;98417.75;5096304;28;20542;-95
2023/03/02 01:00:33;;;;;;;8.38;5.03;;;;;;;3.75;100.00;98401.19;5097813;28;20036;-94
2023/03/02 01:02:58;;;;;;;7.95;4.72;;;;;;;3.74;100.00;98409.97;5098873;28;20040;-92
2023/03/02 01:05:26;;;;;;;8.00;4.88;;;;;;;3.72;100.00;98420.50;5098001;28;20044;-94
2023/03/02 01:07:53;;;;;;;7.93;5.15;;;;;;;3.44;100.00;98402.22;5099593;28;20044;-93
2023/03/02 01:10:19;;;;;;;9.15;6.07;;;;;;;3.54;100.00;98428.47;5097735;28;20123;-93
2023/03/02 01:12:45;;;;;;;8.50;5.93;;;;;;;3.48;100.00;98414.47;5097548;28;20071;-94
2023/03/02 01:15:14;;;;;;;9.80;6.30;;;;;;;3.41;100.00;98411.88;5095948;28;20610;-93
2023/03/02 01:17:41;;;;;;;10.40;6.15;;;;;;;3.32;100.00;98399.66;5097862;28;20036;-92
2023/03/02 01:20:09;;;;;;;10.55;5.78;;;;;;;3.40;100.00;98421.50;5100119;28;20050;-93
2023/03/02 01:22:37;;;;;;;9.63;5.78;;;;;;;3.32;100.00;98391.78;5099097;28;20064;-94
2023/03/02 01:25:04;;;;;;;7.90;5.18;;;;;;;3.35;100.00;98396.13;5099450;28;20040;-94
2023/03/02 01:27:30;;;;;;;10.00;5.50;;;;;;;3.46;100.00;98421.47;5097338;28;20035;-91
2023/03/02 01:29:56;;;;;;;9.35;5.70;;;;;;;3.42;100.00;98413.63;5098014;28;20493;-91
2023/03/02 01:32:22;;;;;;;8.30;5.43;;;;;;;3.36;100.00;98404.03;5096724;28;20063;-90
2023/03/02 01:34:48;;;;;;;10.48;6.68;;;;;;;3.22;100.00;98384.78;5096689;28;20036;-94
2023/03/02 01:37:13;;;;;;;8.02;5.32;;;;;;;3.30;100.00;98401.41;5099066;28;20070;-92
2023/03/02 01:39:41;;;;;;;9.45;5.82;;;;;;;3.18;100.00;98388.31;5098809;28;20044;-94
2023/03/02 01:42:07;;;;;;;14.13;6.03;;;;;;;3.24;100.00;98388.28;5098387;28;20135;-93
2023/03/02 01:44:39;;;;;;;10.35;6.55;;;;;;;3.15;100.00;98393.59;5099209;28;20060;-90
2023/03/02 01:47:12;;;;;;;9.75;6.13;;;;;;;3.08;100.00;98382.22;5097012;28;20090;-92
2023/03/02 01:49:42;;;;;;;10.15;5.97;;;;;;;3.05;100.00;98398.84;5098440;28;20046;-93
2023/03/02 01:52:09;;;;;;;;;;;;;;;3.02;100.00;98408.50;5098890;28;20472;-94
2023/03/02 01:54:36;;;;;;;10.00;5.85;;;;;;;3.06;100.00;98402.38;5097664;28;20341;-92
2023/03/02 01:57:06;;;;;;;9.27;5.90;;;;;;;3.02;100.00;98400.63;5096704;28;20040;-93
2023/03/02 01:59:34;;;;;;;13.00;6.03;;;;;;;3.00;100.00;98397.13;5097979;28;20043;-89
2023/03/02 02:02:03;;;;;;;11.05;5.85;;;;;;;3.08;100.00;98390.13;5096841;28;20560;-91
2023/03/02 02:04:30;;;;;;;;;;;;;;;3.47;100.00;98420.63;5098527;28;20052;-90
2023/03/02 02:07:01;;;;;;;10.23;4.75;;;;;;;3.38;100.00;98394.34;5098702;28;19942;-94
2023/03/02 02:09:31;;;;;;;10.40;5.00;;;;;;;3.51;100.00;98387.28;5097236;28;20070;-94
2023/03/02 02:11:57;;;;;;;7.22;4.40;;;;;;;3.64;100.00;98398.59;5098516;28;20040;-93
2023/03/02 02:14:25;;;;;;;9.68;4.88;;;;;;;3.71;100.00;98395.09;5097813;28;20092;-93
2023/03/02 02:16:51;;;;;;;7.20;4.20;;;;;;;3.88;100.00;98409.00;5098273;28;20055;-93
2023/03/02 02:19:33;;;;;;;7.20;4.45;;;;;;;3.74;100.00;98366.13;5096811;28;20044;-91
2023/03/02 02:21:59;;;;;;;10.23;5.78;;;;;;;3.74;100.00;98368.75;5095738;28;20044;-94
2023/03/02 02:24:31;;;;;;;8.13;4.57;;;;;;;3.88;100.00;98393.22;5097904;28;20462;-93
2023/03/02 02:27:00;;;;;;;11.48;5.78;;;;;;;3.78;100.00;98362.59;5097610;28;20134;-91
2023/03/02 02:29:31;;;;;;;7.93;4.53;;;;;;;3.92;100.00;98378.28;5097242;28;20562;-91
2023/03/02 02:32:02;;;;;;;8.43;4.50;;;;;;;3.70;100.00;98349.47;5096007;28;20076;-91
2023/03/02 02:34:34;;;;;;;9.23;5.32;;;;;;;3.70;100.00;98356.50;5079168;28;20518;-93
2023/03/02 02:37:10;;;;;;;10.52;5.82;;;;;;;3.63;100.00;98344.28;5097144;28;20127;-94
2023/03/02 02:39:41;;;;;;;9.82;4.88;;;;;;;3.74;100.00;98341.59;5095191;28;20044;-94
2023/03/02 02:42:13;;;;;;;8.90;4.50;;;;;;;3.68;100.00;98332.84;5097874;28;20493;-89
2023/03/02 02:44:40;;;;;;;7.93;4.70;;;;;;;3.89;100.00;98370.41;5097205;28;20036;-91
2023/03/02 02:47:15;;;;;;;6.15;3.88;;;;;;;3.92;100.00;98351.97;5093676;28;20055;-92
2023/03/02 02:49:41;;;;;;;7.28;4.00;;;;;;;3.79;100.00;98337.16;5095133;28;20135;-91
2023/03/02 02:52:13;;;;;;;8.40;4.55;;;;;;;3.81;100.00;98327.50;5098186;28;20092;-92
2023/03/02 02:54:41;;;;;;;8.65;4.97;;;;;;;3.81;100.00;98338.03;5098009;28;20047;-93
2023/03/02 02:57:11;;;;;;;7.65;4.50;;;;;;;3.82;100.00;98351.19;5097933;28;20052;-93
2023/03/02 02:59:42;;;;;;;8.93;4.30;;;;;;;3.75;100.00;98348.59;5098180;28;20032;-92
2023/03/02 03:02:14;;;;;;;9.23;5.00;;;;;;;3.94;100.00;98370.38;5096130;28;20050;-91
2023/03/02 03:04:40;;;;;;;8.93;4.57;;;;;;;3.82;100.00;98334.53;5096873;28;20050;-93
2023/03/02 03:07:06;;;;;;;6.80;4.18;;;;;;;3.95;100.00;98330.03;5097078;28;20044;-91
2023/03/02 03:09:32;;;;;;;8.85;4.88;;;;;;;3.91;100.00;98332.69;5099055;28;20044;-93
2023/03/02 03:12:02;;;;;;;7.68;4.45;;;;;;;4.10;100.00;98370.28;5099705;28;20101;-93
2023/03/02 03:14:33;;;;;;;8.68;3.80;;;;;;;4.01;100.00;98329.97;5098152;28;20040;-93
2023/03/02 03:16:59;;;;;;;7.03;3.63;;;;;;;3.93;100.00;98339.72;5100266;28;20118;-94
2023/03/02 03:19:28;;;;;;;7.85;4.95;;;;;;;3.95;100.00;98353.69;5101886;28;20056;-93
2023/03/02 03:22:00;;;;;;;6.80;4.40;;;;;;;4.09;100.00;98354.47;5097064;28;20051;-94
2023/03/02 03:24:27;;;;;;;6.63;4.18;;;;;;;4.14;100.00;98370.22;5097774;28;20093;-93
2023/03/02 03:26:56;;;;;;;7.53;4.25;;;;;;;3.97;100.00;98352.84;5097949;28;20028;-93
2023/03/02 03:29:24;;;;;;;5.97;4.03;;;;;;;4.06;100.00;98380.84;5099328;28;20044;-93
2023/03/02 03:31:52;;;;;;;7.53;4.50;;;;;;;3.94;100.00;98360.72;5097526;28;20044;-93
2023/03/02 03:34:19;;;;;;;9.93;4.97;;;;;;;3.93;100.00;98384.44;5098059;28;20070;-92
2023/03/02 03:36:46;;;;;;;12.07;4.72;;;;;;;3.87;100.00;98386.19;5104276;28;20069;-93
2023/03/02 03:39:14;;;;;;;9.77;4.90;;;;;;;3.63;100.00;98352.19;5108181;28;20040;-93
2023/03/02 03:41:40;;;;;;;8.55;5.13;;;;;;;3.74;100.00;98368.75;5103965;28;20040;-92
2023/03/02 03:44:06;;;;;;;9.80;5.07;;;;;;;3.80;100.00;98373.97;5101827;28;20039;-93
2023/03/02 03:46:33;;;;;;;9.75;4.75;;;;;;;3.84;100.00;98377.47;5102415;28;20039;-92
2023/03/02 03:49:00;;;;;;;11.85;5.03;;;;;;;3.96;100.00;98366.00;5102767;28;20107;-92
2023/03/02 03:51:26;;;;;;;9.05;4.93;;;;;;;4.00;100.00;98365.94;5099712;28;20101;-92
2023/03/02 03:54:00;;;;;;;9.05;5.00;;;;;;;4.09;100.00;98365.00;5099088;28;20117;-91
2023/03/02 03:56:26;;;;;;;7.70;4.50;;;;;;;4.17;100.00;98347.41;5100743;28;20107;-93
2023/03/02 03:59:04;;;;;;;9.40;4.95;;;;;;;4.28;100.00;98374.50;5101836;28;20071;-94
2023/03/02 04:01:33;;;;;;;7.87;5.33;;;;;;;4.21;100.00;98362.28;5100273;28;20505;-92
2023/03/02 04:04:02;;;;;;;9.25;4.93;;;;;;;4.30;100.00;98364.84;5099498;28;20040;-92
2023/03/02 04:06:28;;;;;;;7.80;4.75;;;;;;;4.37;100.00;98367.41;5100902;28;20080;-91
2023/03/02 04:08:54;;;;;;;8.55;5.32;;;;;;;4.40;100.00;98385.81;5098773;28;20105;-91
2023/03/02 04:11:20;;;;;;;10.93;4.70;;;;;;;4.23;100.00;98357.88;5100918;28;20036;-91
2023/03/02 04:13:48;;;;;;;9.02;4.65;;;;;;;4.29;100.00;98367.47;5101326;28;20040;-93
2023/03/02 04:16:15;;;;;;;8.32;5.57;;;;;;;4.27;100.00;98349.09;5100528;28;20040;-92
2023/03/02 04:18:42;;;;;;;10.90;5.97;;;;;;;4.35;100.00;98359.53;5096583;28;20044;-92
2023/03/02 04:21:09;;;;;;;7.32;4.45;;;;;;;4.42;100.00;98341.91;5099098;28;20052;-94
2023/03/02 04:23:35;;;;;;;12.00;5.40;;;;;;;4.35;100.00;98334.97;5100879;28;20036;-92
2023/03/02 04:26:04;;;;;;;9.18;5.10;;;;;;;4.52;100.00;98360.25;5100593;28;20094;-95
2023/03/02 04:28:30;;;;;;;11.53;5.37;;;;;;;4.45;100.00;98342.78;5098413;28;20085;-91
2023/03/02 04:30:56;;;;;;;9.55;5.25;;;;;;;4.57;100.00;98356.69;5098757;28;20085;-92
2023/03/02 04:33:21;;;;;;;11.68;4.93;;;;;;;4.49;100.00;98348.91;5099750;28;20040;-93
2023/03/02 04:35:48;;;;;;;8.73;5.38;;;;;;;4.65;100.00;98365.41;5099560;28;20135;-94
2023/03/02 04:38:15;;;;;;;8.90;4.93;;;;;;;4.70;100.00;98361.81;5098610;28;20048;-93
2023/03/02 04:40:41;;;;;;;10.48;5.32;;;;;;;4.67;100.00;98359.22;5100254;28;20062;-93
2023/03/02 04:43:07;;;;;;;8.55;5.43;;;;;;;4.66;100.00;98346.97;5097697;28;20048;-91
2023/03/02 04:45:33;;;;;;;9.85;5.93;;;;;;;4.63;100.00;98357.50;5097130;28;20043;-92
2023/03/02 04:47:59;;;;;;;13.15;6.10;;;;;;;4.52;100.00;98333.06;5095996;28;20490;-92
2023/03/02 04:50:25;;;;;;;7.32;4.70;;;;;;;4.63;100.00;98360.16;5097120;28;20093;-92
2023/03/02 04:52:51;;;;;;;11.98;4.95;;;;;;;4.62;100.00;98366.31;5098348;28;20048;-90
2023/03/02 04:55:21;;;;;;;9.45;5.57;;;;;;;4.45;100.00;98339.28;5096982;28;20042;-91
2023/03/02 04:57:47;;;;;;;8.02;4.85;;;;;;;4.48;100.00;98341.88;5096659;28;20080;-93
2023/03/02 05:00:16;;;;;;;8.35;4.70;;;;;;;4.47;100.00;98338.38;5097368;28;20704;-90
2023/03/02 05:02:42;;;;;;;7.97;4.17;;;;;;;4.52;100.00;98343.59;5097588;28;20138;-92
2023/03/02 05:05:14;;;;;;;8.73;4.85;;;;;;;4.45;100.00;98341.91;5097355;28;20063;-92
2023/03/02 05:07:40;;;;;;;8.38;5.22;;;;;;;4.45;100.00;98344.53;5095496;28;20116;-94
2023/03/02 05:10:07;;;;;;;10.13;5.40;;;;;;;4.57;100.00;98375.13;5099673;28;20494;-92
2023/03/02 05:12:53;;;;;;;10.38;5.03;;;;;;;4.32;100.00;98342.00;5098414;28;20043;-91
2023/03/02 05:15:19;;;;;;;10.73;5.32;;;;;;;4.49;100.00;98356.78;5093593;28;20032;-91
2023/03/02 05:17:45;;;;;;;12.73;5.82;;;;;;;4.56;100.00;98355.84;5097779;28;20040;-93
2023/03/02 05:20:12;;;;;;;9.77;5.20;;;;;;;4.54;100.00;98360.25;5096410;28;20044;-92
2023/03/02 05:22:37;;;;;;;8.98;5.15;;;;;;;4.44;100.00;98358.56;5098177;28;20497;-93
2023/03/02 05:25:04;;;;;;;10.27;5.45;;;;;;;4.39;100.00;98353.34;5096835;28;20048;-94
2023/03/02 05:27:30;;;;;;;10.10;5.85;;;;;;;4.38;100.00;98362.16;5098023;28;20066;-92
2023/03/02 05:29:58;;;;;;;12.18;6.80;;;;;;;4.39;100.00;98369.16;5096981;28;20036;-92
2023/03/02 05:32:24;;;;;;;12.77;6.03;;;;;;;4.46;100.00;98377.88;5096430;28;20043;-94
2023/03/02 05:34:50;;;;;;;11.63;5.93;;;;;;;4.52;100.00;98385.72;5099034;28;20085;-95
2023/03/02 05:37:16;;;;;;;10.02;5.75;;;;;;;4.44;100.00;98372.59;5096359;28;20119;-90
2023/03/02 05:39:42;;;;;;;10.50;5.82;;;;;;;4.41;100.00;98379.69;5095396;28;20528;-94
2023/03/02 05:42:09;;;;;;;14.13;6.07;;;;;;;4.59;100.00;98382.13;5097437;28;20058;-93
2023/03/02 05:44:34;;;;;;;12.98;5.80;;;;;;;4.45;100.00;98357.69;5097494;28;20036;-95
2023/03/02 05:47:02;;;;;;;11.68;6.55;;;;;;;4.46;100.00;98355.03;5095560;28;20039;-93
2023/03/02 05:49:28;;;;;;;12.35;7.03;;;;;;;4.61;100.00;98375.09;5095272;28;20040;-92
2023/03/02 05:51:54;;;;;;;10.13;5.38;;;;;;;4.46;100.00;98348.91;5098375;28;20046;-92
2023/03/02 05:54:20;;;;;;;11.60;7.35;;;;;;;4.44;100.00;98348.03;5096494;28;20497;-91
2023/03/02 05:56:47;;;;;;;10.90;5.95;;;;;;;4.63;100.00;98367.19;5097149;28;20169;-94
2023/03/02 05:59:12;;;;;;;12.57;7.15;;;;;;;4.62;100.00;98370.69;5096375;28;20036;-93
2023/03/02 06:01:38;;;;;;;11.05;6.07;;;;;;;4.62;100.00;98375.94;5095932;28;20043;-92
2023/03/02 06:04:06;;;;;;;14.23;6.47;;;;;;;4.65;100.00;98363.63;5096981;28;20055;-91
2023/03/02 06:06:32;;;;;;;14.10;5.80;;;;;;;4.70;100.00;98359.19;5098075;28;20044;-92
2023/03/02 06:08:58;;;;;;;11.77;5.97;;;;;;;4.79;100.00;98349.44;5097180;28;20061;-92
2023/03/02 06:11:23;;;;;;;11.63;6.18;;;;;;;4.99;100.00;98381.75;5096037;28;20040;-93
2023/03/02 06:13:50;;;;;;;9.98;5.47;;;;;;;4.88;100.00;98360.78;5096015;28;20047;-92
2023/03/02 06:16:16;;;;;;;9.27;5.43;;;;;;;4.92;100.00;98364.22;5093992;28;20047;-92
2023/03/02 06:18:41;;;;;;;8.93;5.47;;;;;;;4.93;100.00;98353.69;5097427;28;20501;-91
2023/03/02 06:21:09;;;;;;;10.98;5.20;;;;;;;4.96;100.00;98365.94;5096235;28;20043;-93
2023/03/02 06:23:35;;;;;;;11.18;6.78;;;;;;;5.16;100.00;98397.34;5096053;28;20044;-91
2023/03/02 06:26:07;;;;;;;9.60;6.32;;;;;;;5.05;100.00;98379.03;5096198;28;20516;-93
2023/03/02 06:28:33;;;;;;;9.77;5.70;;;;;;;5.13;100.00;98389.47;5095279;28;20055;-91
2023/03/02 06:30:59;;;;;;;12.63;6.78;;;;;;;5.17;100.00;98390.34;5097474;28;20040;-93
2023/03/02 06:33:25;;;;;;;14.52;7.57;;;;;;;5.10;100.00;98379.84;5097341;28;20051;-92
2023/03/02 06:35:51;;;;;;;13.57;7.00;;;;;;;5.15;100.00;98369.25;5097519;28;20043;-93
2023/03/02 06:38:18;;;;;;;11.77;6.30;;;;;;;5.32;100.00;98398.06;5097568;28;20036;-92
2023/03/02 06:40:48;;;;;;;12.73;6.18;;;;;;;5.26;100.00;98382.31;5097375;28;20040;-93
2023/03/02 06:43:14;;;;;;;12.10;6.90;;;;;;;5.27;100.00;98381.41;5098317;28;20040;-94
2023/03/02 06:45:40;;;;;;;14.07;6.53;;;;;;;5.37;100.00;98392.72;5091873;28;20047;-92
2023/03/02 06:48:06;;;;;;;12.63;6.40;;;;;;;5.45;100.00;98393.50;5096959;28;20040;-92
2023/03/02 06:50:33;;;;;;;12.50;6.07;;;;;;;5.58;100.00;98396.88;5097912;28;20048;-91
2023/03/02 06:52:59;;;;;;;12.10;6.85;;;;;;;5.56;100.00;98387.19;5098300;28;20044;-94
2023/03/02 06:55:26;;;;;;;10.52;6.18;;;;;;;5.56;100.00;98379.28;5099529;28;20512;-93
2023/03/02 06:57:52;;;;;;;10.70;6.75;;;;;;;5.69;100.00;98387.91;5099750;28;20054;-93
2023/03/02 07:00:25;;;;;;;16.20;6.80;;;;;;;5.67;100.00;98386.19;5094931;28;20051;-94
2023/03/02 07:02:51;;;;;;;15.88;6.60;;;;;;;5.70;100.00;98387.03;5099859;28;20056;-92
2023/03/02 07:05:18;;;;;;;10.27;6.00;;;;;;;5.86;100.00;98384.16;5097229;28;20490;-94
2023/03/02 07:07:44;;;;;;;12.10;6.35;;;;;;;5.93;100.00;98389.31;5097792;28;20073;-94
2023/03/02 07:10:12;;;;;;;11.93;6.90;;;;;;;6.08;100.00;98382.09;5099406;28;20044;-92
2023/03/02 07:12:40;;;;;;;10.95;6.32;;;;;;;6.32;100.00;98386.13;5101804;28;20509;-92
2023/03/02 07:15:10;;;;;;;13.27;5.88;;;;;;;6.35;100.00;98371.13;5101118;28;20509;-95
2023/03/02 07:17:36;;;;;;;13.95;6.00;;;;;;;6.53;100.00;98406.91;5101930;28;20040;-93
2023/03/02 07:20:02;;;;;;;11.15;6.13;;;;;;;6.50;100.00;98372.59;5102552;28;20054;-93
2023/03/02 07:22:28;;;;;;;12.23;5.88;;;;;;;6.69;100.00;98374.94;5103140;28;20044;-93
2023/03/02 07:24:54;;;;;;;12.20;6.95;;;;;;;6.89;100.00;98399.22;5101589;28;20016;-94
2023/03/02 07:27:20;;;;;;;10.50;6.10;;;;;;;7.07;100.00;98410.34;5103695;28;20047;-93
2023/03/02 07:29:48;;;;;;;9.65;5.60;;;;;;;6.98;100.00;98391.16;5103430;28;20047;-91
2023/03/02 07:32:14;;;;;;;12.13;6.10;;;;;;;7.17;99.69;98398.72;5095226;28;20067;-93
2023/03/02 07:34:40;;;;;;;11.95;5.78;;;;;;;7.36;98.58;98397.44;5103207;28;20064;-94
2023/03/02 07:37:06;;;;;;;9.32;5.63;;;;;;;7.50;97.05;98402.44;5104228;28;20409;-94
2023/03/02 07:39:32;;;;;;;9.18;5.57;;;;;;;7.29;97.73;98397.63;5103731;28;20067;-94
2023/03/02 07:41:59;;;;;;;10.05;5.32;;;;;;;7.23;97.36;98393.31;5104295;28;20074;-93
2023/03/02 07:44:25;;;;;;;12.73;6.70;;;;;;;7.23;97.93;98403.88;5102122;28;20040;-94
2023/03/02 07:46:55;;;;;;;15.10;6.65;;;;;;;7.29;97.32;98410.84;5103685;28;20048;-93
2023/03/02 07:49:24;;;;;;;12.38;6.70;;;;;;;7.17;97.87;98373.13;5102958;28;20044;-95
2023/03/02 07:51:50;;;;;;;11.43;5.90;;;;;;;7.48;97.39;98409.56;5103406;28;20044;-94
2023/03/02 07:54:16;;;;;;;11.50;6.72;;;;;;;7.49;96.77;98390.13;5104825;28;20038;-94
2023/03/02 07:56:42;;;;;;;11.10;5.95;;;;;;;7.68;95.41;98390.63;5102931;28;20054;-94
2023/03/02 07:59:09;;;;;;;9.85;6.18;;;;;;;7.74;95.19;98385.19;5100898;28;20055;-94
2023/03/02 08:01:35;;;;;;;13.35;5.65;;;;;;;7.80;94.85;98397.41;5101455;28;20044;-94
2023/03/02 08:04:03;;;;;;;10.32;6.30;;;;;;;7.72;95.88;98394.06;5101974;28;20143;-92
2023/03/02 08:06:29;;;;;;;8.45;5.05;;;;;;;7.74;95.60;98393.16;5103041;28;20075;-92
2023/03/02 08:08:55;;;;;;;11.55;6.15;;;;;;;7.81;95.46;98399.16;5102596;28;20121;-95
2023/03/02 08:11:21;;;;;;;9.88;6.22;;;;;;;7.75;95.39;98384.28;5101998;28;20036;-93
2023/03/02 08:13:47;;;;;;;12.48;6.20;;;;;;;7.78;96.59;98396.56;5090830;28;20047;-94
2023/03/02 08:16:14;;;;;;;11.70;6.28;;;;;;;7.97;94.94;98411.16;5099651;28;20044;-94
2023/03/02 08:18:40;;;;;;;15.75;6.18;;;;;;;8.23;93.61;98396.44;5100669;28;20043;-93
2023/03/02 08:21:13;;;;;;;11.13;5.93;;;;;;;8.19;93.10;98395.63;5100733;28;20059;-94
2023/03/02 08:23:39;;;;;;;10.85;5.57;;;;;;;8.14;93.39;98400.19;5101393;28;20116;-94
2023/03/02 08:26:05;;;;;;;11.45;5.32;;;;;;;8.13;92.64;98379.91;5101361;28;20044;-93
2023/03/02 08:28:31;;;;;;;12.32;5.68;;;;;;;7.92;93.77;98391.84;5095146;28;20497;-94
2023/03/02 08:30:58;;;;;;;12.32;6.13;;;;;;;7.89;92.91;98388.41;5099698;28;20040;-91
2023/03/02 08:33:25;;;;;;;8.45;5.72;;;;;;;7.99;92.50;98380.22;5101587;28;20079;-93
2023/03/02 08:35:55;;;;;;;8.68;5.07;;;;;;;8.32;91.26;98396.22;5101097;28;20053;-93
2023/03/02 08:38:23;;;;;;;10.88;6.05;;;;;;;7.98;93.11;98381.13;5099141;28;20043;-94
2023/03/02 08:40:50;;;;;;;10.65;5.90;;;;;;;8.23;92.49;98377.91;5099029;28;20064;-93
2023/03/02 08:43:16;;;;;;;10.02;5.47;;;;;;;8.35;90.05;98382.91;5097774;28;20039;-92
2023/03/02 08:45:42;;;;;;;9.23;5.28;;;;;;;8.46;88.80;98365.88;5099442;28;20040;-92
2023/03/02 08:48:08;;;;;;;8.60;4.45;;;;;;;8.68;87.28;98379.50;5097432;28;20413;-92
2023/03/02 08:50:34;;;;;;;7.18;4.75;;;;;;;8.58;85.78;98374.41;5095604;28;20059;-91
2023/03/02 08:53:00;;;;;;;7.25;4.68;;;;;;;8.79;86.45;98393.34;5094629;28;20439;-92
2023/03/02 08:55:27;;;;;;;6.53;4.40;;;;;;;9.01;84.84;98398.94;5098481;28;20043;-93
2023/03/02 08:57:53;;;;;;;8.55;4.28;;;;;;;8.77;84.65;98390.72;5097570;28;20550;-92
2023/03/02 09:00:20;;;;;;;8.65;4.57;;;;;;;8.91;84.02;98400.94;5096887;28;20036;-94
2023/03/02 09:02:46;;;;;;;8.50;4.20;;;;;;;9.03;83.37;98391.81;5097006;28;20497;-92
2023/03/02 09:05:11;;;;;;;7.43;5.00;;;;;;;8.82;84.87;98385.28;5097184;28;20043;-93
2023/03/02 09:07:37;;;;;;;6.63;4.28;;;;;;;8.99;85.36;98392.81;5095436;28;20064;-94
2023/03/02 09:10:04;;;;;;;7.45;4.90;;;;;;;8.96;83.19;98391.13;5095417;28;20044;-92
2023/03/02 09:12:31;;;;;;;10.07;4.90;;;;;;;9.14;82.82;98396.84;5096200;28;20040;-95
2023/03/02 09:14:57;;;;;;;11.48;5.20;;;;;;;9.13;82.43;98385.34;5095460;28;20046;-91
2023/03/02 09:17:23;;;;;;;7.68;4.68;;;;;;;9.44;82.01;98419.00;5093993;28;20040;-93
2023/03/02 09:19:49;;;;;;;9.77;4.90;;;;;;;9.26;82.30;98393.84;5095274;28;20075;-94
2023/03/02 09:22:15;;;;;;;8.85;5.47;;;;;;;9.22;82.43;98386.88;5097585;28;20070;-89
2023/03/02 09:24:41;;;;;;;7.88;5.00;;;;;;;9.43;81.42;98388.03;5096870;28;20115;-93
2023/03/02 09:27:07;;;;;;;7.35;4.95;;;;;;;9.36;80.54;98379.38;5095472;28;20071;-94
2023/03/02 09:29:34;;;;;;;6.85;4.13;;;;;;;9.71;80.22;98381.94;5097404;28;20046;-94
2023/03/02 09:32:00;;;;;;;7.57;4.63;;;;;;;9.62;80.14;98362.69;5094030;28;20504;-94
2023/03/02 09:34:26;;;;;;;7.32;4.50;;;;;;;9.75;79.15;98360.56;5095804;28;20131;-94
2023/03/02 09:36:52;;;;;;;7.97;3.95;;;;;;;9.86;78.11;98362.88;5096780;28;20063;-94
2023/03/02 09:39:18;;;;;;;8.98;4.97;;;;;;;9.95;79.37;98370.56;5095458;28;20040;-93
2023/03/02 09:42:10;;;;;;;8.48;4.90;;;;;;;10.07;77.26;98398.53;5095163;28;20044;-94
2023/03/02 09:45:04;;;;;;;8.63;5.07;;;;;;;9.88;77.67;98369.03;5096684;28;20071;-94
2023/03/02 09:47:38;;;;;;;8.93;4.90;;;;;;;9.92;79.31;98373.31;5084210;28;20040;-94
2023/03/02 09:50:24;;;;;;;8.32;4.78;;;;;;;9.92;78.70;98399.03;5097437;28;20986;-91
2023/03/02 09:53:01;;;;;;;6.65;4.78;;;;;;;10.06;77.71;98387.06;5094973;28;20068;-94
2023/03/02 09:55:34;;;;;;;9.30;5.22;;;;;;;9.80;77.34;98374.59;5096133;28;20364;-93
2023/03/02 09:58:01;;;;;;;9.05;4.75;;;;;;;9.85;77.70;98372.66;5096979;28;20086;-95
2023/03/02 10:00:35;;;;;;;7.50;4.60;;;;;;;10.14;77.04;98378.84;5097275;28;20040;-94
2023/03/02 10:03:05;;;;;;;8.32;4.90;;;;;;;10.40;75.54;98379.81;5097419;28;20036;-94
2023/03/02 10:05:37;;;;;;;9.32;4.88;;;;;;;10.73;74.44;98393.78;5097979;28;20055;-92
2023/03/02 10:08:03;;;;;;;8.73;5.15;;;;;;;10.89;74.39;98400.31;5097141;28;20039;-93
2023/03/02 10:10:39;;;;;;;10.07;5.47;;;;;;;10.71;74.91;98368.16;5097889;28;20409;-94
2023/03/02 10:13:17;;;;;;;7.07;4.13;;;;;;;10.63;73.64;98384.41;5097710;28;20111;-94
2023/03/02 10:15:54;;;;;;;8.82;4.55;;;;;;;10.24;73.94;98364.34;5097619;28;20050;-95
2023/03/02 10:18:27;;;;;;;6.70;4.13;;;;;;;10.40;74.67;98386.00;5099524;28;20043;-94
2023/03/02 10:20:58;;;;;;;8.75;4.72;;;;;;;10.36;74.18;98384.34;5098356;28;20511;-93
2023/03/02 10:23:45;;;;;;;9.88;4.95;;;;;;;10.30;75.08;98376.59;5096851;28;20043;-95
2023/03/02 10:26:26;;;;;;;7.07;4.70;;;;;;;10.60;73.67;98390.66;5096803;28;20032;-93
2023/03/02 10:28:59;;;;;;;8.27;4.13;;;;;;;10.62;74.12;98372.00;5096362;28;20063;-95
2023/03/02 10:31:28;;;;;;;8.93;4.55;;;;;;;10.82;73.14;98360.69;5094935;28;20044;-94
2023/03/02 10:33:55;;;;;;;7.90;4.75;;;;;;;11.31;73.85;98358.94;5096765;28;20040;-93
2023/03/02 10:36:24;;;;;;;7.43;5.50;;;;;;;11.51;70.75;98382.16;5096918;28;20123;-93
2023/03/02 10:38:53;;;;;;;7.80;5.00;;;;;;;11.71;70.56;98366.31;5097195;28;20119;-94
2023/03/02 10:41:24;;;;;;;6.75;4.22;;;;;;;11.85;69.07;98381.75;5095850;28;20072;-92
2023/03/02 10:43:53;;;;;;;6.05;4.10;;;;;;;11.29;68.44;98369.63;5097110;28;20048;-93
2023/03/02 10:46:19;;;;;;;8.27;4.63;;;;;;;10.98;70.74;98379.66;5094033;28;20040;-94
2023/03/02 10:48:52;;;;;;;9.32;4.10;;;;;;;11.21;70.16;98378.81;5095823;28;20036;-93
2023/03/02 10:51:23;;;;;;;7.07;4.22;;;;;;;11.55;68.29;98378.47;5095169;28;20051;-92
2023/03/02 10:53:49;;;;;;;6.10;4.15;;;;;;;11.66;68.03;98360.28;5095230;28;20044;-92
2023/03/02 10:56:19;;;;;;;6.85;3.80;;;;;;;12.00;65.49;98367.00;5094274;28;20039;-90
2023/03/02 10:58:45;;;;;;;5.53;4.03;;;;;;;12.00;67.35;98358.16;5091477;28;20107;-95
2023/03/02 11:01:16;;;;;;;5.93;4.18;;;;;;;11.97;66.02;98358.25;5090445;28;20478;-93
2023/03/02 11:03:42;;;;;;;7.13;4.10;;;;;;;12.13;67.26;98381.59;5092454;28;20528;-92
2023/03/02 11:06:18;;;;;;;8.73;4.63;;;;;;;12.06;68.15;98384.56;5093393;28;20048;-93
2023/03/02 11:08:44;;;;;;;10.50;5.10;;;;;;;11.81;67.13;98355.31;5093641;28;20528;-94
2023/03/02 11:11:20;;;;;;;8.48;4.50;;;;;;;11.84;65.80;98384.47;5093680;28;20048;-95
2023/03/02 11:13:46;;;;;;;6.82;4.13;;;;;;;11.57;67.58;98349.97;5092016;28;20062;-94
2023/03/02 11:16:24;;;;;;;7.97;4.10;;;;;;;11.61;67.79;98367.59;5095768;28;20784;-93
2023/03/02 11:18:54;;;;;;;5.57;3.90;;;;;;;11.51;67.91;98367.06;5090346;28;20083;-95
2023/03/02 11:21:28;;;;;;;5.68;3.88;;;;;;;11.78;67.03;98348.31;5094022;28;20036;-95
2023/03/02 11:23:59;;;;;;;5.40;4.00;;;;;;;11.49;66.37;98368.03;5094961;28;20052;-93
2023/03/02 11:26:30;;;;;;;8.43;4.30;;;;;;;11.41;66.22;98355.03;5091770;28;20040;-94
2023/03/02 11:29:00;;;;;;;8.65;4.60;;;;;;;11.56;68.11;98347.38;5094490;28;20171;-95
2023/03/02 11:31:33;;;;;;;7.28;4.38;;;;;;;11.68;68.86;98353.09;5092000;28;20044;-94
2023/03/02 11:34:10;;;;;;;7.60;5.00;;;;;;;11.84;70.87;98356.06;5093805;28;20051;-95
2023/03/02 11:36:47;;;;;;;6.35;4.03;;;;;;;11.91;66.55;98330.94;5094214;28;20040;-94